Time;durP1;ratioP1;P1;durP2;ratioP2;P2;SDS_P1;SDS_P2;PMS_P1;PMS_P2;Temp;Humidity;BMP_temperature;BMP_pressure;BME280_temperature;BME280_humidity;BME280_pressure;Samples;Min_cycle;Max_cycle;Signal;HPM_P1;HPM_P2
2022/03/04 00:09:09;;;;;;;47.9;57.1;;;;;;;0.3;70.2;98840;;;;
2022/03/04 00:20:09;;;;;;;47.9;57.1;;;;;;;0.3;70.2;98830;;;;
2022/03/04 00:31:09;;;;;;;47.9;57.1;;;;;;;0.2;70.5;98830;;;;
2022/03/04 00:42:09;;;;;;;48.6;56.8;;;;;;;0.2;70.5;98820;;;;
2022/03/04 00:52:09;;;;;;;48.6;56.8;;;;;;;0.1;70.9;98820;;;;
2022/03/04 01:03:08;;;;;;;48.6;56.8;;;;;;;0.1;71.3;98820;;;;
2022/03/04 01:13:09;;;;;;;51.9;61.6;;;;;;;0.1;71.5;98820;;;;
2022/03/04 01:24:09;;;;;;;51.9;61.6;;;;;;;0.1;71.4;98810;;;;
2022/03/04 01:34:08;;;;;;;51.9;61.6;;;;;;;0.1;71.8;98810;;;;
2022/03/04 01:44:09;;;;;;;59.9;70.4;;;;;;;0;70.8;98800;;;;
2022/03/04 01:54:09;;;;;;;59.9;70.4;;;;;;;0;70.1;98800;;;;
2022/03/04 02:05:09;;;;;;;59.9;70.4;;;;;;;0;70.2;98790;;;;
2022/03/04 02:15:08;;;;;;;41.1;53.5;;;;;;;0;69.9;98790;;;;
2022/03/04 02:25:09;;;;;;;41.1;53.5;;;;;;;0;70.2;98800;;;;
2022/03/04 02:35:09;;;;;;;41.1;53.5;;;;;;;0;70;98800;;;;
2022/03/04 02:46:08;;;;;;;44.2;54;;;;;;;-0.2;71.9;98790;;;;
2022/03/04 02:56:08;;;;;;;44.2;54;;;;;;;-0.2;71.3;98790;;;;
2022/03/04 03:07:09;;;;;;;45.4;57.4;;;;;;;-0.1;70.7;98810;;;;
2022/03/04 03:17:09;;;;;;;45.4;57.4;;;;;;;-0.2;70.7;98820;;;;
2022/03/04 03:28:09;;;;;;;45.4;57.4;;;;;;;-0.2;70.7;98830;;;;
2022/03/04 03:39:09;;;;;;;39.7;47.9;;;;;;;-0.2;70.6;98830;;;;
2022/03/04 03:50:09;;;;;;;39.7;47.9;;;;;;;-0.2;70.3;98830;;;;
2022/03/04 04:00:09;;;;;;;39.7;47.9;;;;;;;-0.1;70.1;98830;;;;
2022/03/04 04:11:09;;;;;;;30;35.8;;;;;;;-0.1;70.3;98830;;;;
2022/03/04 04:22:09;;;;;;;30;35.8;;;;;;;-0.1;70.3;98840;;;;
2022/03/04 04:33:09;;;;;;;30;35.8;;;;;;;-0.1;70.3;98850;;;;
2022/03/04 04:43:09;;;;;;;32.3;45.7;;;;;;;-0.2;70.6;98850;;;;
2022/03/04 04:54:09;;;;;;;32.3;45.7;;;;;;;-0.1;70.6;98840;;;;
2022/03/04 05:05:09;;;;;;;32.3;45.7;;;;;;;-0.1;70.5;98850;;;;
2022/03/04 05:16:09;;;;;;;31.9;35.7;;;;;;;-0.2;70.9;98860;;;;
2022/03/04 05:26:09;;;;;;;31.9;35.7;;;;;;;-0.1;71.3;98860;;;;
2022/03/04 05:37:09;;;;;;;31.2;39.2;;;;;;;-0.1;71.4;98870;;;;
2022/03/04 05:48:09;;;;;;;31.2;39.2;;;;;;;0;71.8;98880;;;;
2022/03/04 05:58:10;;;;;;;31.2;39.2;;;;;;;0;72.6;98880;;;;
2022/03/04 06:08:09;;;;;;;35;43.7;;;;;;;0;73.4;98890;;;;
2022/03/04 06:18:09;;;;;;;35;43.7;;;;;;;0.1;74;98900;;;;
2022/03/04 06:28:09;;;;;;;35;43.7;;;;;;;0.2;74;98920;;;;
2022/03/04 06:38:09;;;;;;;34.7;40.2;;;;;;;0.3;74.1;98930;;;;
2022/03/04 06:49:10;;;;;;;34.7;40.2;;;;;;;0.4;75;98930;;;;
2022/03/04 06:59:09;;;;;;;34.7;40.2;;;;;;;0.4;75.2;98940;;;;
2022/03/04 07:09:09;;;;;;;34.8;45.9;;;;;;;0.5;76;98940;;;;
2022/03/04 07:20:09;;;;;;;34.8;45.9;;;;;;;0.7;75.5;98950;;;;
2022/03/04 07:31:09;;;;;;;34.8;45.9;;;;;;;0.7;75.3;98950;;;;
2022/03/04 07:42:09;;;;;;;44.9;53.1;;;;;;;1;74.9;98950;;;;
2022/03/04 07:52:09;;;;;;;44.9;53.1;;;;;;;1.2;74.9;98960;;;;
2022/03/04 08:02:09;;;;;;;44.9;53.1;;;;;;;1.4;74.4;98970;;;;
2022/03/04 08:13:09;;;;;;;43.7;53.6;;;;;;;1.6;74;98970;;;;
2022/03/04 08:24:09;;;;;;;43.7;53.6;;;;;;;1.8;73.9;98980;;;;
2022/03/04 08:35:09;;;;;;;43.7;53.6;;;;;;;2.2;73.2;98980;;;;
2022/03/04 08:46:12;;;;;;;52.6;62.6;;;;;;;2.1;72.7;98980;;;;
2022/03/04 08:56:09;;;;;;;52.6;62.6;;;;;;;2.5;72.3;98990;;;;
2022/03/04 09:07:09;;;;;;;45.6;54.8;;;;;;;3;70.5;98990;;;;
2022/03/04 09:17:09;;;;;;;45.6;54.8;;;;;;;3.5;70.7;99010;;;;
2022/03/04 09:28:09;;;;;;;45.6;54.8;;;;;;;3.4;68.9;99010;;;;
2022/03/04 09:39:09;;;;;;;43.2;51;;;;;;;3.3;67.9;99020;;;;
2022/03/04 09:50:09;;;;;;;43.2;51;;;;;;;3.4;68.2;99020;;;;
2022/03/04 10:00:11;;;;;;;43.2;51;;;;;;;3.9;67.6;99020;;;;
2022/03/04 10:10:09;;;;;;;40.6;51.5;;;;;;;4.3;67.6;99020;;;;
2022/03/04 10:20:09;;;;;;;40.6;51.5;;;;;;;4.6;66.4;99020;;;;
2022/03/04 10:31:09;;;;;;;40.6;51.5;;;;;;;4.2;65.7;99020;;;;
2022/03/04 10:42:09;;;;;;;31.5;39;;;;;;;4.1;64.9;99020;;;;
2022/03/04 10:53:09;;;;;;;31.5;39;;;;;;;4.5;65.9;99010;;;;
2022/03/04 11:03:09;;;;;;;31.5;39;;;;;;;4.3;64.7;99010;;;;
2022/03/04 11:13:09;;;;;;;31.2;37.7;;;;;;;4.6;63.1;99010;;;;
2022/03/04 11:24:09;;;;;;;31.2;37.7;;;;;;;4.8;63.6;99000;;;;
2022/03/04 11:35:09;;;;;;;27.9;34.7;;;;;;;4.9;63;99000;;;;
2022/03/04 11:45:09;;;;;;;27.9;34.7;;;;;;;4.8;61.4;98990;;;;
2022/03/04 11:55:09;;;;;;;27.9;34.7;;;;;;;4.9;63.1;98990;;;;
2022/03/04 12:06:09;;;;;;;30.3;43.2;;;;;;;5.2;61;98990;;;;
2022/03/04 12:16:11;;;;;;;30.3;43.2;;;;;;;4.9;60.5;98990;;;;
2022/03/04 12:27:09;;;;;;;30.3;43.2;;;;;;;4.8;58.7;98980;;;;
2022/03/04 12:38:09;;;;;;;23.9;29.7;;;;;;;4.9;59.9;98980;;;;
2022/03/04 12:48:09;;;;;;;23.9;29.7;;;;;;;4;64.2;98980;;;;
2022/03/04 12:58:09;;;;;;;23.9;29.7;;;;;;;3.5;66.7;98980;;;;
2022/03/04 13:09:09;;;;;;;34.3;43.6;;;;;;;3.4;68.1;98970;;;;
2022/03/04 13:19:09;;;;;;;34.3;43.6;;;;;;;3.3;67.9;98970;;;;
2022/03/04 13:30:09;;;;;;;34.3;43.6;;;;;;;3.5;66.6;98980;;;;
2022/03/04 13:40:09;;;;;;;33.2;40.5;;;;;;;3.5;67.1;98980;;;;
2022/03/04 13:51:09;;;;;;;33.2;40.5;;;;;;;3.2;68.3;98990;;;;
2022/03/04 14:01:09;;;;;;;33.2;40.5;;;;;;;3.2;69.3;98990;;;;
2022/03/04 14:12:09;;;;;;;36.8;46.8;;;;;;;3.1;69.2;98980;;;;
2022/03/04 14:22:09;;;;;;;36.8;46.8;;;;;;;3.2;68.9;98990;;;;
2022/03/04 14:32:09;;;;;;;36.8;46.8;;;;;;;3.2;68.5;99000;;;;
2022/03/04 14:43:09;;;;;;;37.2;44.6;;;;;;;3.1;69.2;99010;;;;
2022/03/04 14:53:09;;;;;;;37.2;44.6;;;;;;;3;69.5;99010;;;;
2022/03/04 15:04:09;;;;;;;37.2;44.6;;;;;;;2.7;70.9;99010;;;;
2022/03/04 15:14:09;;;;;;;43.9;50.2;;;;;;;2.6;71.5;99010;;;;
2022/03/04 15:24:09;;;;;;;43.9;50.2;;;;;;;2.6;71.6;99020;;;;
2022/03/04 15:34:09;;;;;;;43.9;50.2;;;;;;;2.6;72;99020;;;;
2022/03/04 15:45:09;;;;;;;46.7;57;;;;;;;2.4;73.7;99020;;;;
2022/03/04 15:56:09;;;;;;;46.7;57;;;;;;;2.1;74.9;99030;;;;
2022/03/04 16:06:09;;;;;;;50.6;59.9;;;;;;;2.1;74.6;99040;;;;
2022/03/04 16:16:12;;;;;;;50.6;59.9;;;;;;;2.1;74.8;99050;;;;
2022/03/04 16:27:09;;;;;;;50.6;59.9;;;;;;;2;75.5;99050;;;;
2022/03/04 16:37:09;;;;;;;60;72.4;;;;;;;1.9;75.7;99060;;;;
2022/03/04 16:47:09;;;;;;;60;72.4;;;;;;;1.7;76.4;99060;;;;
2022/03/04 16:58:09;;;;;;;60;72.4;;;;;;;1.7;77.2;99070;;;;
2022/03/04 17:09:09;;;;;;;63.4;73;;;;;;;1.7;77.2;99070;;;;
2022/03/04 17:19:09;;;;;;;63.4;73;;;;;;;1.7;77.6;99070;;;;
2022/03/04 17:29:09;;;;;;;63.4;73;;;;;;;1.8;78.6;99070;;;;
2022/03/04 17:40:09;;;;;;;68.2;79.9;;;;;;;1.7;79.7;99080;;;;
2022/03/04 17:50:09;;;;;;;68.2;79.9;;;;;;;1.8;79.8;99080;;;;
2022/03/04 18:00:09;;;;;;;68.2;79.9;;;;;;;1.8;79.9;99080;;;;
2022/03/04 18:11:09;;;;;;;55.5;67.4;;;;;;;1.8;80;99080;;;;
2022/03/04 18:22:09;;;;;;;55.5;67.4;;;;;;;1.8;80.1;99100;;;;
2022/03/04 18:32:09;;;;;;;55.5;67.4;;;;;;;1.7;80.5;99100;;;;
2022/03/04 18:42:09;;;;;;;59.1;72.5;;;;;;;1.7;80.7;99090;;;;
2022/03/04 18:52:09;;;;;;;59.1;72.5;;;;;;;1.7;80.9;99090;;;;
2022/03/04 19:03:09;;;;;;;59.1;72.5;;;;;;;1.7;81.2;99100;;;;
2022/03/04 19:14:09;;;;;;;79.5;99.9;;;;;;;1.7;81.5;99090;;;;
2022/03/04 19:24:09;;;;;;;79.5;99.9;;;;;;;1.6;81.5;99090;;;;
2022/03/04 19:34:09;;;;;;;72;86.2;;;;;;;1.6;81.6;99090;;;;
2022/03/04 19:45:09;;;;;;;72;86.2;;;;;;;1.6;81.6;99080;;;;
2022/03/04 19:55:09;;;;;;;72;86.2;;;;;;;1.6;81.8;99080;;;;
2022/03/04 20:05:09;;;;;;;73.8;91.9;;;;;;;1.5;82.3;99080;;;;
2022/03/04 20:15:09;;;;;;;73.8;91.9;;;;;;;1.5;82.4;99080;;;;
2022/03/04 20:26:09;;;;;;;73.8;91.9;;;;;;;1.5;82.7;99090;;;;
2022/03/04 20:36:09;;;;;;;71.3;81.3;;;;;;;1.5;82.6;99090;;;;
2022/03/04 20:46:09;;;;;;;71.3;81.3;;;;;;;1.6;82.1;99100;;;;
2022/03/04 20:56:09;;;;;;;71.3;81.3;;;;;;;1.5;82;99100;;;;
2022/03/04 21:07:09;;;;;;;55.4;64.1;;;;;;;1.5;82.2;99110;;;;
2022/03/04 21:18:09;;;;;;;55.4;64.1;;;;;;;1.4;82.4;99110;;;;
2022/03/04 21:29:09;;;;;;;55.4;64.1;;;;;;;1.6;82;99120;;;;
2022/03/04 21:40:09;;;;;;;47;54.3;;;;;;;1.4;82;99110;;;;
2022/03/04 21:50:09;;;;;;;47;54.3;;;;;;;1.3;82.3;99110;;;;
2022/03/04 22:01:09;;;;;;;47;54.3;;;;;;;1.4;82;99100;;;;
2022/03/04 22:12:09;;;;;;;30.2;35.8;;;;;;;1.2;82.1;99090;;;;
2022/03/04 22:23:09;;;;;;;30.2;35.8;;;;;;;1.1;82;99090;;;;
2022/03/04 22:33:09;;;;;;;30.5;34.5;;;;;;;1;81.7;99090;;;;
2022/03/04 22:43:09;;;;;;;30.5;34.5;;;;;;;0.9;81.3;99090;;;;
2022/03/04 22:54:10;;;;;;;30.5;34.5;;;;;;;1;80.9;99090;;;;
2022/03/04 23:16:09;;;;;;;23.4;29.2;;;;;;;1.1;80.2;99100;;;;
2022/03/04 23:26:09;;;;;;;23.4;29.2;;;;;;;1;80.5;99110;;;;
2022/03/04 23:36:09;;;;;;;19.4;22.5;;;;;;;1.1;80.5;99110;;;;
2022/03/04 23:46:09;;;;;;;19.4;22.5;;;;;;;1.1;80.4;99110;;;;
2022/03/04 23:57:09;;;;;;;19.4;22.5;;;;;;;1.1;80.6;99110;;;;
